sensor_id;sensor_type;location;lat;lon;timestamp;pressure;altitude;pressure_sealevel;temperature;humidity
17054;BME280;8643;48.824;11.422;2022-08-30T00:02:27;97211.94;;;16.04;100.00
17054;BME280;8643;48.824;11.422;2022-08-30T00:04:56;97214.34;;;16.05;100.00
17054;BME280;8643;48.824;11.422;2022-08-30T00:07:27;97202.13;;;16.06;100.00
17054;BME280;8643;48.824;11.422;2022-08-30T00:09:56;97204.09;;;16.06;100.00
17054;BME280;8643;48.824;11.422;2022-08-30T00:12:25;97198.28;;;16.11;100.00
17054;BME280;8643;48.824;11.422;2022-08-30T00:14:55;97196.16;;;16.04;100.00
17054;BME280;8643;48.824;11.422;2022-08-30T00:17:23;97206.25;;;15.97;100.00
17054;BME280;8643;48.824;11.422;2022-08-30T00:19:55;97209.53;;;16.02;100.00
17054;BME280;8643;48.824;11.422;2022-08-30T00:22:23;97206.97;;;15.93;100.00
17054;BME280;8643;48.824;11.422;2022-08-30T00:24:51;97206.88;;;15.90;100.00
17054;BME280;8643;48.824;11.422;2022-08-30T00:27:20;97206.38;;;15.84;100.00
17054;BME280;8643;48.824;11.422;2022-08-30T00:29:49;97202.63;;;15.92;100.00
17054;BME280;8643;48.824;11.422;2022-08-30T00:32:17;97202.69;;;15.96;100.00
17054;BME280;8643;48.824;11.422;2022-08-30T00:34:47;97201.44;;;15.93;100.00
17054;BME280;8643;48.824;11.422;2022-08-30T00:37:18;97206.16;;;15.93;100.00
17054;BME280;8643;48.824;11.422;2022-08-30T00:39:48;97205.19;;;15.85;100.00
17054;BME280;8643;48.824;11.422;2022-08-30T00:42:18;97204.56;;;15.92;100.00
17054;BME280;8643;48.824;11.422;2022-08-30T00:44:48;97208.44;;;15.87;100.00
17054;BME280;8643;48.824;11.422;2022-08-30T00:47:16;97209.28;;;15.91;100.00
17054;BME280;8643;48.824;11.422;2022-08-30T00:49:50;97206.97;;;15.93;100.00
17054;BME280;8643;48.824;11.422;2022-08-30T00:52:22;97205.44;;;15.96;100.00
17054;BME280;8643;48.824;11.422;2022-08-30T00:54:51;97204.84;;;15.87;100.00
17054;BME280;8643;48.824;11.422;2022-08-30T00:57:20;97204.34;;;15.81;100.00
17054;BME280;8643;48.824;11.422;2022-08-30T00:59:49;97203.34;;;15.73;100.00
17054;BME280;8643;48.824;11.422;2022-08-30T01:02:21;97202.72;;;15.64;100.00
17054;BME280;8643;48.824;11.422;2022-08-30T01:04:51;97190.53;;;15.65;100.00
17054;BME280;8643;48.824;11.422;2022-08-30T01:07:21;97199.31;;;15.71;100.00
17054;BME280;8643;48.824;11.422;2022-08-30T01:09:50;97203.63;;;15.68;100.00
17054;BME280;8643;48.824;11.422;2022-08-30T01:12:19;97200.94;;;15.56;100.00
17054;BME280;8643;48.824;11.422;2022-08-30T01:14:47;97193.84;;;15.39;100.00
17054;BME280;8643;48.824;11.422;2022-08-30T01:17:19;97193.22;;;15.30;100.00
17054;BME280;8643;48.824;11.422;2022-08-30T01:19:54;97195.00;;;15.22;100.00
17054;BME280;8643;48.824;11.422;2022-08-30T01:22:32;97196.44;;;15.16;100.00
17054;BME280;8643;48.824;11.422;2022-08-30T01:25:06;97198.75;;;15.14;100.00
17054;BME280;8643;48.824;11.422;2022-08-30T01:27:40;97195.53;;;15.12;100.00
17054;BME280;8643;48.824;11.422;2022-08-30T01:30:10;97189.66;;;15.13;100.00
17054;BME280;8643;48.824;11.422;2022-08-30T01:32:43;97192.44;;;15.13;100.00
17054;BME280;8643;48.824;11.422;2022-08-30T01:35:15;97191.63;;;15.13;100.00
17054;BME280;8643;48.824;11.422;2022-08-30T01:37:45;97191.72;;;15.16;100.00
17054;BME280;8643;48.824;11.422;2022-08-30T01:40:16;97195.47;;;15.08;100.00
17054;BME280;8643;48.824;11.422;2022-08-30T01:42:46;97199.25;;;14.88;100.00
17054;BME280;8643;48.824;11.422;2022-08-30T01:45:15;97197.72;;;14.74;100.00
17054;BME280;8643;48.824;11.422;2022-08-30T01:47:44;97204.19;;;14.66;100.00
17054;BME280;8643;48.824;11.422;2022-08-30T01:50:12;97202.53;;;14.49;100.00
17054;BME280;8643;48.824;11.422;2022-08-30T01:52:41;97190.25;;;14.46;100.00
17054;BME280;8643;48.824;11.422;2022-08-30T01:55:10;97199.81;;;14.37;100.00
17054;BME280;8643;48.824;11.422;2022-08-30T01:57:39;97194.38;;;14.24;100.00
17054;BME280;8643;48.824;11.422;2022-08-30T02:00:10;97194.25;;;14.21;100.00
17054;BME280;8643;48.824;11.422;2022-08-30T02:02:39;97194.25;;;14.21;100.00
17054;BME280;8643;48.824;11.422;2022-08-30T02:05:08;97198.63;;;14.22;100.00
17054;BME280;8643;48.824;11.422;2022-08-30T02:07:36;97199.31;;;14.19;100.00
17054;BME280;8643;48.824;11.422;2022-08-30T02:10:05;97204.03;;;14.18;100.00
17054;BME280;8643;48.824;11.422;2022-08-30T02:12:34;97206.44;;;14.20;100.00
17054;BME280;8643;48.824;11.422;2022-08-30T02:15:05;97205.41;;;14.12;100.00
17054;BME280;8643;48.824;11.422;2022-08-30T02:17:35;97202.47;;;14.05;100.00
17054;BME280;8643;48.824;11.422;2022-08-30T02:20:05;97204.19;;;13.97;100.00
17054;BME280;8643;48.824;11.422;2022-08-30T02:22:34;97206.50;;;13.95;100.00
17054;BME280;8643;48.824;11.422;2022-08-30T02:25:04;97210.38;;;13.94;100.00
17054;BME280;8643;48.824;11.422;2022-08-30T02:27:46;97210.50;;;13.98;100.00
17054;BME280;8643;48.824;11.422;2022-08-30T02:30:16;97207.03;;;14.01;100.00
17054;BME280;8643;48.824;11.422;2022-08-30T02:32:45;97210.38;;;14.06;100.00
17054;BME280;8643;48.824;11.422;2022-08-30T02:35:13;97206.09;;;14.09;100.00
17054;BME280;8643;48.824;11.422;2022-08-30T02:37:42;97204.28;;;14.13;100.00
17054;BME280;8643;48.824;11.422;2022-08-30T02:40:11;97209.63;;;14.22;100.00
17054;BME280;8643;48.824;11.422;2022-08-30T02:42:39;97207.41;;;14.27;100.00
17054;BME280;8643;48.824;11.422;2022-08-30T02:45:09;97205.94;;;14.30;100.00
17054;BME280;8643;48.824;11.422;2022-08-30T02:47:39;97207.66;;;14.22;100.00
17054;BME280;8643;48.824;11.422;2022-08-30T02:50:13;97210.56;;;14.14;100.00
17054;BME280;8643;48.824;11.422;2022-08-30T02:52:42;97211.84;;;14.04;100.00
17054;BME280;8643;48.824;11.422;2022-08-30T02:55:15;97209.25;;;13.95;100.00
17054;BME280;8643;48.824;11.422;2022-08-30T02:57:44;97209.25;;;13.95;100.00
17054;BME280;8643;48.824;11.422;2022-08-30T03:00:16;97209.25;;;13.95;100.00
17054;BME280;8643;48.824;11.422;2022-08-30T03:02:46;97205.66;;;13.94;100.00
17054;BME280;8643;48.824;11.422;2022-08-30T03:05:16;97202.03;;;13.90;100.00
17054;BME280;8643;48.824;11.422;2022-08-30T03:07:45;97207.06;;;13.88;100.00
17054;BME280;8643;48.824;11.422;2022-08-30T03:10:14;97205.38;;;13.71;100.00
17054;BME280;8643;48.824;11.422;2022-08-30T03:12:43;97208.72;;;13.65;100.00
17054;BME280;8643;48.824;11.422;2022-08-30T03:15:15;97208.25;;;13.63;100.00
17054;BME280;8643;48.824;11.422;2022-08-30T03:17:43;97209.16;;;13.67;100.00
17054;BME280;8643;48.824;11.422;2022-08-30T03:20:13;97204.81;;;13.66;100.00
17054;BME280;8643;48.824;11.422;2022-08-30T03:22:41;97204.09;;;13.69;100.00
17054;BME280;8643;48.824;11.422;2022-08-30T03:25:10;97211.91;;;13.79;100.00
17054;BME280;8643;48.824;11.422;2022-08-30T03:27:40;97213.16;;;13.82;100.00
17054;BME280;8643;48.824;11.422;2022-08-30T03:30:09;97218.19;;;13.80;100.00
17054;BME280;8643;48.824;11.422;2022-08-30T03:32:39;97203.41;;;13.84;100.00
17054;BME280;8643;48.824;11.422;2022-08-30T03:35:09;97204.78;;;13.78;100.00
17054;BME280;8643;48.824;11.422;2022-08-30T03:37:39;97210.28;;;13.78;100.00
17054;BME280;8643;48.824;11.422;2022-08-30T03:40:09;97212.94;;;13.74;100.00
17054;BME280;8643;48.824;11.422;2022-08-30T03:42:39;97211.47;;;13.77;100.00
17054;BME280;8643;48.824;11.422;2022-08-30T03:45:11;97214.66;;;13.79;100.00
17054;BME280;8643;48.824;11.422;2022-08-30T03:47:40;97218.53;;;13.78;100.00
17054;BME280;8643;48.824;11.422;2022-08-30T03:50:11;97213.03;;;13.78;100.00
17054;BME280;8643;48.824;11.422;2022-08-30T03:52:42;97216.03;;;13.73;100.00
17054;BME280;8643;48.824;11.422;2022-08-30T03:55:12;97217.75;;;13.65;100.00
17054;BME280;8643;48.824;11.422;2022-08-30T03:57:40;97218.34;;;13.59;100.00
17054;BME280;8643;48.824;11.422;2022-08-30T04:00:11;97219.69;;;13.52;100.00
17054;BME280;8643;48.824;11.422;2022-08-30T04:02:41;97209.97;;;13.43;100.00
17054;BME280;8643;48.824;11.422;2022-08-30T04:05:11;97213.63;;;13.34;100.00
17054;BME280;8643;48.824;11.422;2022-08-30T04:07:46;97220.16;;;13.30;100.00
17054;BME280;8643;48.824;11.422;2022-08-30T04:10:15;97222.69;;;13.35;100.00
17054;BME280;8643;48.824;11.422;2022-08-30T04:12:43;97226.00;;;13.28;100.00
17054;BME280;8643;48.824;11.422;2022-08-30T04:15:18;97228.94;;;13.23;100.00
17054;BME280;8643;48.824;11.422;2022-08-30T04:17:47;97232.75;;;13.31;100.00
17054;BME280;8643;48.824;11.422;2022-08-30T04:20:16;97227.63;;;13.42;100.00
17054;BME280;8643;48.824;11.422;2022-08-30T04:22:46;97229.22;;;13.43;100.00
17054;BME280;8643;48.824;11.422;2022-08-30T04:25:14;97217.06;;;13.44;100.00
17054;BME280;8643;48.824;11.422;2022-08-30T04:27:44;97218.56;;;13.41;100.00
17054;BME280;8643;48.824;11.422;2022-08-30T04:30:15;97220.16;;;13.42;100.00
17054;BME280;8643;48.824;11.422;2022-08-30T04:32:44;97222.91;;;13.42;100.00
17054;BME280;8643;48.824;11.422;2022-08-30T04:35:13;97229.09;;;13.39;100.00
17054;BME280;8643;48.824;11.422;2022-08-30T04:37:42;97234.50;;;13.35;100.00
17054;BME280;8643;48.824;11.422;2022-08-30T04:40:13;97241.28;;;13.38;100.00
17054;BME280;8643;48.824;11.422;2022-08-30T04:42:42;97240.34;;;13.46;100.00
17054;BME280;8643;48.824;11.422;2022-08-30T04:45:14;97235.31;;;13.48;100.00
17054;BME280;8643;48.824;11.422;2022-08-30T04:47:43;97237.38;;;13.51;100.00
17054;BME280;8643;48.824;11.422;2022-08-30T04:50:16;97239.44;;;13.54;100.00
17054;BME280;8643;48.824;11.422;2022-08-30T04:52:45;97247.13;;;13.61;100.00
17054;BME280;8643;48.824;11.422;2022-08-30T04:55:15;97244.34;;;13.73;100.00
17054;BME280;8643;48.824;11.422;2022-08-30T04:57:47;97251.47;;;13.87;100.00
17054;BME280;8643;48.824;11.422;2022-08-30T05:00:16;97246.72;;;14.00;100.00
17054;BME280;8643;48.824;11.422;2022-08-30T05:02:47;97243.63;;;14.14;100.00
17054;BME280;8643;48.824;11.422;2022-08-30T05:05:16;97247.94;;;14.27;100.00
17054;BME280;8643;48.824;11.422;2022-08-30T05:08:03;97246.19;;;14.35;100.00
17054;BME280;8643;48.824;11.422;2022-08-30T05:10:33;97245.25;;;14.43;100.00
17054;BME280;8643;48.824;11.422;2022-08-30T05:13:04;97237.66;;;14.52;100.00
17054;BME280;8643;48.824;11.422;2022-08-30T05:15:32;97236.38;;;14.62;100.00
17054;BME280;8643;48.824;11.422;2022-08-30T05:18:01;97237.63;;;14.64;100.00
17054;BME280;8643;48.824;11.422;2022-08-30T05:20:30;97241.03;;;14.74;100.00
17054;BME280;8643;48.824;11.422;2022-08-30T05:22:58;97240.25;;;14.73;100.00
17054;BME280;8643;48.824;11.422;2022-08-30T05:25:30;97245.59;;;14.82;100.00
17054;BME280;8643;48.824;11.422;2022-08-30T05:27:59;97254.34;;;15.00;100.00
17054;BME280;8643;48.824;11.422;2022-08-30T05:30:31;97262.25;;;15.01;100.00
17054;BME280;8643;48.824;11.422;2022-08-30T05:33:01;97263.97;;;15.06;100.00
17054;BME280;8643;48.824;11.422;2022-08-30T05:35:29;97272.88;;;15.31;100.00
17054;BME280;8643;48.824;11.422;2022-08-30T05:37:57;97272.97;;;15.51;100.00
17054;BME280;8643;48.824;11.422;2022-08-30T05:40:26;97270.38;;;15.74;100.00
17054;BME280;8643;48.824;11.422;2022-08-30T05:42:55;97266.31;;;15.84;100.00
17054;BME280;8643;48.824;11.422;2022-08-30T05:45:25;97262.09;;;16.06;100.00
17054;BME280;8643;48.824;11.422;2022-08-30T05:47:53;97266.94;;;16.28;100.00
17054;BME280;8643;48.824;11.422;2022-08-30T05:50:22;97271.09;;;16.58;100.00
17054;BME280;8643;48.824;11.422;2022-08-30T05:52:50;97272.59;;;16.91;100.00
17054;BME280;8643;48.824;11.422;2022-08-30T05:55:19;97270.84;;;17.25;100.00
17054;BME280;8643;48.824;11.422;2022-08-30T05:57:47;97279.03;;;17.64;100.00
17054;BME280;8643;48.824;11.422;2022-08-30T06:00:17;97278.34;;;17.94;100.00
17054;BME280;8643;48.824;11.422;2022-08-30T06:02:51;97283.59;;;18.26;100.00
17054;BME280;8643;48.824;11.422;2022-08-30T06:05:20;97286.47;;;18.63;100.00
17054;BME280;8643;48.824;11.422;2022-08-30T06:07:49;97295.44;;;18.83;100.00
17054;BME280;8643;48.824;11.422;2022-08-30T06:10:17;97296.38;;;18.95;100.00
17054;BME280;8643;48.824;11.422;2022-08-30T06:12:45;97293.03;;;19.12;100.00
17054;BME280;8643;48.824;11.422;2022-08-30T06:15:14;97293.09;;;19.19;100.00
17054;BME280;8643;48.824;11.422;2022-08-30T06:17:44;97293.19;;;19.27;100.00
17054;BME280;8643;48.824;11.422;2022-08-30T06:20:16;97303.22;;;19.04;100.00
17054;BME280;8643;48.824;11.422;2022-08-30T06:22:46;97301.47;;;19.23;100.00
17054;BME280;8643;48.824;11.422;2022-08-30T06:25:14;97292.81;;;19.73;100.00
17054;BME280;8643;48.824;11.422;2022-08-30T06:27:43;97285.72;;;19.75;100.00
17054;BME280;8643;48.824;11.422;2022-08-30T06:30:12;97285.22;;;20.14;100.00
17054;BME280;8643;48.824;11.422;2022-08-30T06:32:44;97291.19;;;20.13;100.00
17054;BME280;8643;48.824;11.422;2022-08-30T06:35:14;97293.81;;;20.58;100.00
17054;BME280;8643;48.824;11.422;2022-08-30T06:37:42;97282.22;;;20.41;100.00
17054;BME280;8643;48.824;11.422;2022-08-30T06:40:12;97291.38;;;20.45;100.00
17054;BME280;8643;48.824;11.422;2022-08-30T06:42:43;97284.16;;;20.33;100.00
17054;BME280;8643;48.824;11.422;2022-08-30T06:45:11;97282.69;;;20.58;100.00
17054;BME280;8643;48.824;11.422;2022-08-30T06:47:41;97277.13;;;20.58;100.00
17054;BME280;8643;48.824;11.422;2022-08-30T06:50:12;97278.16;;;20.24;100.00
17054;BME280;8643;48.824;11.422;2022-08-30T06:52:44;97285.00;;;19.86;100.00
17054;BME280;8643;48.824;11.422;2022-08-30T06:55:15;97287.22;;;19.66;100.00
17054;BME280;8643;48.824;11.422;2022-08-30T06:57:44;97288.13;;;19.77;100.00
17054;BME280;8643;48.824;11.422;2022-08-30T07:00:15;97281.06;;;20.53;100.00
17054;BME280;8643;48.824;11.422;2022-08-30T07:02:44;97281.38;;;21.25;100.00
17054;BME280;8643;48.824;11.422;2022-08-30T07:05:13;97283.47;;;21.78;100.00
17054;BME280;8643;48.824;11.422;2022-08-30T07:07:46;97281.84;;;22.46;99.73
17054;BME280;8643;48.824;11.422;2022-08-30T07:10:16;97287.66;;;22.95;99.16
17054;BME280;8643;48.824;11.422;2022-08-30T07:12:45;97280.44;;;23.04;92.52
17054;BME280;8643;48.824;11.422;2022-08-30T07:15:13;97281.25;;;23.01;98.77
17054;BME280;8643;48.824;11.422;2022-08-30T07:17:42;97283.25;;;22.97;91.93
17054;BME280;8643;48.824;11.422;2022-08-30T07:20:28;97282.88;;;22.92;87.93
17054;BME280;8643;48.824;11.422;2022-08-30T07:23:09;97281.94;;;23.23;90.55
17054;BME280;8643;48.824;11.422;2022-08-30T07:25:39;97292.41;;;23.72;90.34
17054;BME280;8643;48.824;11.422;2022-08-30T07:28:09;97289.03;;;23.98;88.12
17054;BME280;8643;48.824;11.422;2022-08-30T07:30:40;97285.41;;;24.43;85.23
17054;BME280;8643;48.824;11.422;2022-08-30T07:33:08;97293.66;;;24.61;87.94
17054;BME280;8643;48.824;11.422;2022-08-30T07:35:37;97283.41;;;24.44;88.69
17054;BME280;8643;48.824;11.422;2022-08-30T07:38:05;97297.88;;;24.77;87.35
17054;BME280;8643;48.824;11.422;2022-08-30T07:40:37;97289.22;;;25.29;89.33
17054;BME280;8643;48.824;11.422;2022-08-30T07:43:05;97289.50;;;25.07;88.32
17054;BME280;8643;48.824;11.422;2022-08-30T07:45:35;97285.97;;;25.34;85.82
17054;BME280;8643;48.824;11.422;2022-08-30T07:48:04;97284.47;;;25.80;81.12
17054;BME280;8643;48.824;11.422;2022-08-30T07:50:33;97281.13;;;25.89;83.81
17054;BME280;8643;48.824;11.422;2022-08-30T07:53:01;97285.16;;;25.88;79.51
17054;BME280;8643;48.824;11.422;2022-08-30T07:55:36;97284.66;;;26.21;86.45
17054;BME280;8643;48.824;11.422;2022-08-30T07:58:05;97280.59;;;26.45;78.40
17054;BME280;8643;48.824;11.422;2022-08-30T08:00:33;97283.25;;;26.52;76.01
17054;BME280;8643;48.824;11.422;2022-08-30T08:03:04;97289.06;;;26.85;74.65
17054;BME280;8643;48.824;11.422;2022-08-30T08:05:37;97288.19;;;27.08;70.14
17054;BME280;8643;48.824;11.422;2022-08-30T08:08:06;97294.56;;;27.29;73.38
17054;BME280;8643;48.824;11.422;2022-08-30T08:10:39;97299.28;;;27.36;75.01
17054;BME280;8643;48.824;11.422;2022-08-30T08:13:08;97298.69;;;27.97;70.48
17054;BME280;8643;48.824;11.422;2022-08-30T08:15:37;97302.44;;;27.38;69.78
17054;BME280;8643;48.824;11.422;2022-08-30T08:18:06;97298.19;;;27.50;72.13
17054;BME280;8643;48.824;11.422;2022-08-30T08:20:34;97306.91;;;27.88;69.71
17054;BME280;8643;48.824;11.422;2022-08-30T08:23:03;97292.56;;;27.30;68.91
17054;BME280;8643;48.824;11.422;2022-08-30T08:25:31;97295.84;;;27.81;74.35
17054;BME280;8643;48.824;11.422;2022-08-30T08:28:03;97298.53;;;27.68;71.86
17054;BME280;8643;48.824;11.422;2022-08-30T08:30:34;97287.75;;;27.83;72.57
17054;BME280;8643;48.824;11.422;2022-08-30T08:33:04;97288.63;;;27.80;69.18
17054;BME280;8643;48.824;11.422;2022-08-30T08:35:33;97296.66;;;27.98;66.81
17054;BME280;8643;48.824;11.422;2022-08-30T08:38:02;97297.75;;;28.50;69.08
17054;BME280;8643;48.824;11.422;2022-08-30T08:40:41;97296.44;;;28.38;65.98
17054;BME280;8643;48.824;11.422;2022-08-30T08:43:16;97297.03;;;28.62;65.96
17054;BME280;8643;48.824;11.422;2022-08-30T08:45:55;97297.94;;;28.59;67.28
17054;BME280;8643;48.824;11.422;2022-08-30T08:48:34;97305.31;;;28.53;68.26
17054;BME280;8643;48.824;11.422;2022-08-30T08:51:30;97297.28;;;28.68;65.15
17054;BME280;8643;48.824;11.422;2022-08-30T08:54:23;97300.56;;;29.08;68.72
17054;BME280;8643;48.824;11.422;2022-08-30T08:56:55;97298.53;;;28.67;69.07
17054;BME280;8643;48.824;11.422;2022-08-30T08:59:27;97293.06;;;28.89;70.97
17054;BME280;8643;48.824;11.422;2022-08-30T09:01:59;97304.97;;;29.10;61.38
17054;BME280;8643;48.824;11.422;2022-08-30T09:04:34;97299.53;;;28.89;63.23
17054;BME280;8643;48.824;11.422;2022-08-30T09:07:13;97289.28;;;29.64;59.51
17054;BME280;8643;48.824;11.422;2022-08-30T09:09:46;97288.03;;;30.03;65.44
17054;BME280;8643;48.824;11.422;2022-08-30T09:12:15;97283.50;;;30.19;60.13
17054;BME280;8643;48.824;11.422;2022-08-30T09:14:50;97286.63;;;30.68;56.32
17054;BME280;8643;48.824;11.422;2022-08-30T09:17:22;97290.31;;;29.83;58.35
17054;BME280;8643;48.824;11.422;2022-08-30T09:20:00;97280.50;;;30.35;58.04
17054;BME280;8643;48.824;11.422;2022-08-30T09:22:33;97279.50;;;30.42;59.73
17054;BME280;8643;48.824;11.422;2022-08-30T09:25:07;97282.00;;;30.40;59.58
17054;BME280;8643;48.824;11.422;2022-08-30T09:27:40;97281.75;;;30.47;60.02
17054;BME280;8643;48.824;11.422;2022-08-30T09:30:19;97280.38;;;30.74;59.34
17054;BME280;8643;48.824;11.422;2022-08-30T09:32:55;97276.06;;;31.26;55.44
17054;BME280;8643;48.824;11.422;2022-08-30T09:35:32;97280.97;;;31.35;52.58
17054;BME280;8643;48.824;11.422;2022-08-30T09:38:06;97279.13;;;31.41;51.26
17054;BME280;8643;48.824;11.422;2022-08-30T09:40:40;97261.91;;;31.26;51.35
17054;BME280;8643;48.824;11.422;2022-08-30T09:43:19;97264.28;;;30.83;50.78
17054;BME280;8643;48.824;11.422;2022-08-30T09:46:08;97270.63;;;31.10;49.48
17054;BME280;8643;48.824;11.422;2022-08-30T09:48:44;97266.34;;;31.58;53.31
17054;BME280;8643;48.824;11.422;2022-08-30T09:51:39;97256.16;;;31.79;48.47
17054;BME280;8643;48.824;11.422;2022-08-30T09:54:21;97259.06;;;31.98;49.08
17054;BME280;8643;48.824;11.422;2022-08-30T09:57:05;97258.22;;;31.79;50.76
17054;BME280;8643;48.824;11.422;2022-08-30T09:59:48;97250.00;;;31.63;48.40
17054;BME280;8643;48.824;11.422;2022-08-30T10:02:42;97257.72;;;31.71;48.33
17054;BME280;8643;48.824;11.422;2022-08-30T10:05:24;97251.09;;;31.34;50.19
17054;BME280;8643;48.824;11.422;2022-08-30T10:08:08;97250.22;;;31.87;49.48
17054;BME280;8643;48.824;11.422;2022-08-30T10:10:50;97246.59;;;32.64;47.62
17054;BME280;8643;48.824;11.422;2022-08-30T10:13:53;97256.47;;;32.59;46.23
17054;BME280;8643;48.824;11.422;2022-08-30T10:16:41;97239.66;;;31.78;44.29
17054;BME280;8643;48.824;11.422;2022-08-30T10:19:26;97242.34;;;31.50;44.51
17054;BME280;8643;48.824;11.422;2022-08-30T10:22:03;97231.31;;;31.74;41.63
17054;BME280;8643;48.824;11.422;2022-08-30T10:24:42;97236.16;;;32.33;40.68
17054;BME280;8643;48.824;11.422;2022-08-30T10:27:17;97232.53;;;32.14;47.40
17054;BME280;8643;48.824;11.422;2022-08-30T10:29:54;97224.28;;;31.88;47.61
17054;BME280;8643;48.824;11.422;2022-08-30T10:32:32;97225.91;;;32.17;48.79
17054;BME280;8643;48.824;11.422;2022-08-30T10:35:10;97224.38;;;32.72;43.19
17054;BME280;8643;48.824;11.422;2022-08-30T10:37:50;97220.56;;;32.93;43.43
17054;BME280;8643;48.824;11.422;2022-08-30T10:40:27;97216.19;;;32.74;45.31
17054;BME280;8643;48.824;11.422;2022-08-30T10:43:23;97209.88;;;32.14;41.34
17054;BME280;8643;48.824;11.422;2022-08-30T10:46:00;97209.09;;;32.87;44.22
17054;BME280;8643;48.824;11.422;2022-08-30T10:48:37;97209.94;;;33.21;43.55
17054;BME280;8643;48.824;11.422;2022-08-30T10:51:24;97209.34;;;33.51;42.46
17054;BME280;8643;48.824;11.422;2022-08-30T10:53:59;97194.50;;;33.13;45.62
17054;BME280;8643;48.824;11.422;2022-08-30T10:56:30;97196.75;;;33.18;45.19
17054;BME280;8643;48.824;11.422;2022-08-30T10:58:59;97201.38;;;32.60;43.60
17054;BME280;8643;48.824;11.422;2022-08-30T11:02:05;97198.19;;;31.93;43.59
17054;BME280;8643;48.824;11.422;2022-08-30T11:05:16;97202.78;;;32.28;48.49
17054;BME280;8643;48.824;11.422;2022-08-30T11:08:05;97193.81;;;30.10;45.31
17054;BME280;8643;48.824;11.422;2022-08-30T11:11:00;97186.38;;;29.30;47.54
17054;BME280;8643;48.824;11.422;2022-08-30T11:13:40;97179.25;;;29.51;48.47
17054;BME280;8643;48.824;11.422;2022-08-30T11:16:13;97178.31;;;31.25;40.69
17054;BME280;8643;48.824;11.422;2022-08-30T11:18:47;97181.19;;;31.03;39.37
17054;BME280;8643;48.824;11.422;2022-08-30T11:21:31;97185.03;;;32.27;43.49
17054;BME280;8643;48.824;11.422;2022-08-30T11:24:06;97183.44;;;32.63;41.57
17054;BME280;8643;48.824;11.422;2022-08-30T11:27:00;97180.00;;;33.54;41.94
17054;BME280;8643;48.824;11.422;2022-08-30T11:29:39;97178.38;;;32.03;40.40
17054;BME280;8643;48.824;11.422;2022-08-30T11:33:00;97171.91;;;30.36;52.42
17054;BME280;8643;48.824;11.422;2022-08-30T11:35:42;97179.09;;;31.25;40.73
17054;BME280;8643;48.824;11.422;2022-08-30T11:39:03;97171.88;;;31.24;42.73
17054;BME280;8643;48.824;11.422;2022-08-30T11:41:36;97180.19;;;32.98;42.47
17054;BME280;8643;48.824;11.422;2022-08-30T11:44:30;97173.03;;;32.60;43.36
17054;BME280;8643;48.824;11.422;2022-08-30T11:47:00;97174.84;;;31.71;43.82
17054;BME280;8643;48.824;11.422;2022-08-30T11:50:00;97174.38;;;29.64;44.96
17054;BME280;8643;48.824;11.422;2022-08-30T11:52:49;97170.25;;;29.04;49.76
17054;BME280;8643;48.824;11.422;2022-08-30T11:55:44;97166.19;;;28.50;50.17
17054;BME280;8643;48.824;11.422;2022-08-30T11:58:27;97173.72;;;27.62;52.95
17054;BME280;8643;48.824;11.422;2022-08-30T12:01:18;97175.09;;;27.21;55.97
17054;BME280;8643;48.824;11.422;2022-08-30T12:04:11;97162.72;;;26.82;51.37
17054;BME280;8643;48.824;11.422;2022-08-30T12:06:55;97164.59;;;26.88;55.08
17054;BME280;8643;48.824;11.422;2022-08-30T12:09:59;97159.31;;;28.22;55.70
17054;BME280;8643;48.824;11.422;2022-08-30T12:12:54;97161.06;;;27.70;54.06
17054;BME280;8643;48.824;11.422;2022-08-30T12:15:56;97158.22;;;28.62;50.70
17054;BME280;8643;48.824;11.422;2022-08-30T12:18:43;97163.59;;;28.56;55.25
17054;BME280;8643;48.824;11.422;2022-08-30T12:21:25;97157.31;;;27.93;50.71
17054;BME280;8643;48.824;11.422;2022-08-30T12:24:00;97150.03;;;27.10;53.65
17054;BME280;8643;48.824;11.422;2022-08-30T12:26:36;97144.03;;;26.35;54.54
17054;BME280;8643;48.824;11.422;2022-08-30T12:29:17;97148.69;;;26.02;58.64
17054;BME280;8643;48.824;11.422;2022-08-30T12:31:51;97151.31;;;25.89;62.48
17054;BME280;8643;48.824;11.422;2022-08-30T12:34:25;97145.63;;;26.16;57.81
17054;BME280;8643;48.824;11.422;2022-08-30T12:36:59;97143.81;;;26.26;52.16
17054;BME280;8643;48.824;11.422;2022-08-30T12:39:34;97143.78;;;26.06;68.03
17054;BME280;8643;48.824;11.422;2022-08-30T12:42:12;97152.69;;;27.17;55.73
17054;BME280;8643;48.824;11.422;2022-08-30T12:44:47;97145.19;;;29.06;47.73
17054;BME280;8643;48.824;11.422;2022-08-30T12:47:22;97151.81;;;30.78;44.73
17054;BME280;8643;48.824;11.422;2022-08-30T12:49:53;97148.94;;;31.82;43.31
17054;BME280;8643;48.824;11.422;2022-08-30T12:52:36;97147.38;;;32.27;39.92
17054;BME280;8643;48.824;11.422;2022-08-30T12:55:14;97146.31;;;32.15;43.16
17054;BME280;8643;48.824;11.422;2022-08-30T12:57:58;97147.84;;;32.07;42.91
17054;BME280;8643;48.824;11.422;2022-08-30T13:00:31;97157.31;;;32.31;41.48
17054;BME280;8643;48.824;11.422;2022-08-30T13:03:03;97145.41;;;32.88;43.01
17054;BME280;8643;48.824;11.422;2022-08-30T13:05:45;97145.63;;;32.57;41.61
17054;BME280;8643;48.824;11.422;2022-08-30T13:08:22;97142.28;;;33.63;37.73
17054;BME280;8643;48.824;11.422;2022-08-30T13:10:58;97142.09;;;33.66;40.52
17054;BME280;8643;48.824;11.422;2022-08-30T13:13:41;97142.84;;;34.24;37.92
17054;BME280;8643;48.824;11.422;2022-08-30T13:16:34;97139.06;;;33.46;42.39
17054;BME280;8643;48.824;11.422;2022-08-30T13:19:32;97134.91;;;33.13;40.33
17054;BME280;8643;48.824;11.422;2022-08-30T13:22:01;97130.16;;;32.86;41.46
17054;BME280;8643;48.824;11.422;2022-08-30T13:24:30;97128.31;;;33.16;38.52
17054;BME280;8643;48.824;11.422;2022-08-30T13:27:04;97126.31;;;32.28;40.58
17054;BME280;8643;48.824;11.422;2022-08-30T13:29:35;97121.06;;;32.73;41.56
17054;BME280;8643;48.824;11.422;2022-08-30T13:32:05;97123.72;;;31.06;40.64